sensor_id;sensor_type;location;lat;lon;timestamp;P1;durP1;ratioP1;P2;durP2;ratioP2
79562;SDS011;69026;50.980;11.314;2023-05-29T00:00:47;5.82;;;3.67;;
79562;SDS011;69026;50.980;11.314;2023-05-29T00:03:13;5.68;;;3.80;;
79562;SDS011;69026;50.980;11.314;2023-05-29T00:05:39;6.72;;;4.10;;
79562;SDS011;69026;50.980;11.314;2023-05-29T00:08:05;5.25;;;3.70;;
79562;SDS011;69026;50.980;11.314;2023-05-29T00:10:31;4.93;;;3.65;;
79562;SDS011;69026;50.980;11.314;2023-05-29T00:12:58;6.13;;;3.97;;
79562;SDS011;69026;50.980;11.314;2023-05-29T00:15:26;6.25;;;3.90;;
79562;SDS011;69026;50.980;11.314;2023-05-29T00:17:53;5.90;;;3.97;;
79562;SDS011;69026;50.980;11.314;2023-05-29T00:20:18;5.57;;;4.15;;
79562;SDS011;69026;50.980;11.314;2023-05-29T00:22:44;6.80;;;3.55;;
79562;SDS011;69026;50.980;11.314;2023-05-29T00:25:10;5.32;;;3.80;;
79562;SDS011;69026;50.980;11.314;2023-05-29T00:27:36;6.93;;;3.85;;
79562;SDS011;69026;50.980;11.314;2023-05-29T00:30:02;4.95;;;3.75;;
79562;SDS011;69026;50.980;11.314;2023-05-29T00:32:30;5.85;;;4.15;;
79562;SDS011;69026;50.980;11.314;2023-05-29T00:34:56;7.10;;;3.95;;
79562;SDS011;69026;50.980;11.314;2023-05-29T00:37:22;5.80;;;4.00;;
79562;SDS011;69026;50.980;11.314;2023-05-29T00:39:48;5.97;;;3.92;;
79562;SDS011;69026;50.980;11.314;2023-05-29T00:42:14;7.10;;;4.57;;
79562;SDS011;69026;50.980;11.314;2023-05-29T00:44:40;6.95;;;4.03;;
79562;SDS011;69026;50.980;11.314;2023-05-29T00:47:06;7.45;;;4.28;;
79562;SDS011;69026;50.980;11.314;2023-05-29T00:49:33;7.47;;;4.28;;
79562;SDS011;69026;50.980;11.314;2023-05-29T00:52:01;5.72;;;3.83;;
79562;SDS011;69026;50.980;11.314;2023-05-29T00:54:28;6.70;;;4.25;;
79562;SDS011;69026;50.980;11.314;2023-05-29T00:56:56;7.00;;;4.43;;
79562;SDS011;69026;50.980;11.314;2023-05-29T00:59:24;5.70;;;4.05;;
79562;SDS011;69026;50.980;11.314;2023-05-29T01:01:52;6.90;;;3.83;;
79562;SDS011;69026;50.980;11.314;2023-05-29T01:04:19;6.90;;;3.83;;
79562;SDS011;69026;50.980;11.314;2023-05-29T01:06:46;6.75;;;4.63;;
79562;SDS011;69026;50.980;11.314;2023-05-29T01:09:12;5.88;;;4.00;;
79562;SDS011;69026;50.980;11.314;2023-05-29T01:11:57;6.18;;;3.78;;
79562;SDS011;69026;50.980;11.314;2023-05-29T01:17:25;6.65;;;4.15;;
79562;SDS011;69026;50.980;11.314;2023-05-29T01:28:07;6.85;;;4.57;;
79562;SDS011;69026;50.980;11.314;2023-05-29T01:30:38;6.38;;;4.28;;
79562;SDS011;69026;50.980;11.314;2023-05-29T01:33:07;6.82;;;4.53;;
79562;SDS011;69026;50.980;11.314;2023-05-29T01:35:33;7.05;;;4.65;;
79562;SDS011;69026;50.980;11.314;2023-05-29T01:37:58;6.88;;;4.20;;
79562;SDS011;69026;50.980;11.314;2023-05-29T01:40:24;6.63;;;3.97;;
79562;SDS011;69026;50.980;11.314;2023-05-29T01:42:51;6.32;;;4.05;;
79562;SDS011;69026;50.980;11.314;2023-05-29T01:45:19;6.10;;;3.60;;
79562;SDS011;69026;50.980;11.314;2023-05-29T01:47:46;6.97;;;4.55;;
79562;SDS011;69026;50.980;11.314;2023-05-29T01:50:13;4.65;;;3.47;;
79562;SDS011;69026;50.980;11.314;2023-05-29T01:52:43;5.80;;;4.13;;
79562;SDS011;69026;50.980;11.314;2023-05-29T01:55:09;6.93;;;3.88;;
79562;SDS011;69026;50.980;11.314;2023-05-29T01:57:35;6.10;;;4.50;;
79562;SDS011;69026;50.980;11.314;2023-05-29T02:00:03;6.55;;;4.30;;
79562;SDS011;69026;50.980;11.314;2023-05-29T02:02:40;6.00;;;4.22;;
79562;SDS011;69026;50.980;11.314;2023-05-29T02:05:07;6.45;;;4.28;;
79562;SDS011;69026;50.980;11.314;2023-05-29T02:07:34;6.10;;;3.83;;
79562;SDS011;69026;50.980;11.314;2023-05-29T02:10:05;6.28;;;4.13;;
79562;SDS011;69026;50.980;11.314;2023-05-29T02:12:31;7.97;;;4.40;;
79562;SDS011;69026;50.980;11.314;2023-05-29T02:14:57;6.03;;;4.43;;
79562;SDS011;69026;50.980;11.314;2023-05-29T02:17:23;5.78;;;4.20;;
79562;SDS011;69026;50.980;11.314;2023-05-29T02:19:50;8.63;;;5.15;;
79562;SDS011;69026;50.980;11.314;2023-05-29T02:22:17;7.15;;;4.13;;
79562;SDS011;69026;50.980;11.314;2023-05-29T02:24:43;5.63;;;4.70;;
79562;SDS011;69026;50.980;11.314;2023-05-29T02:27:09;5.78;;;3.92;;
79562;SDS011;69026;50.980;11.314;2023-05-29T02:29:35;6.47;;;4.55;;
79562;SDS011;69026;50.980;11.314;2023-05-29T02:32:00;6.40;;;4.55;;
79562;SDS011;69026;50.980;11.314;2023-05-29T02:34:26;5.53;;;3.85;;
79562;SDS011;69026;50.980;11.314;2023-05-29T02:36:52;6.65;;;4.18;;
79562;SDS011;69026;50.980;11.314;2023-05-29T02:39:19;5.32;;;3.92;;
79562;SDS011;69026;50.980;11.314;2023-05-29T02:41:45;7.00;;;4.57;;
79562;SDS011;69026;50.980;11.314;2023-05-29T02:44:10;6.35;;;4.40;;
79562;SDS011;69026;50.980;11.314;2023-05-29T02:46:36;7.18;;;4.35;;
79562;SDS011;69026;50.980;11.314;2023-05-29T02:49:02;5.22;;;3.70;;
79562;SDS011;69026;50.980;11.314;2023-05-29T02:51:28;6.97;;;4.47;;
79562;SDS011;69026;50.980;11.314;2023-05-29T02:53:54;6.80;;;4.15;;
79562;SDS011;69026;50.980;11.314;2023-05-29T02:56:20;7.10;;;4.43;;
79562;SDS011;69026;50.980;11.314;2023-05-29T02:58:51;5.43;;;3.80;;
79562;SDS011;69026;50.980;11.314;2023-05-29T03:01:17;6.95;;;4.47;;
79562;SDS011;69026;50.980;11.314;2023-05-29T03:03:43;6.60;;;4.60;;
79562;SDS011;69026;50.980;11.314;2023-05-29T03:06:09;6.43;;;4.32;;
79562;SDS011;69026;50.980;11.314;2023-05-29T03:08:39;5.82;;;4.30;;
79562;SDS011;69026;50.980;11.314;2023-05-29T03:11:13;5.82;;;4.05;;
79562;SDS011;69026;50.980;11.314;2023-05-29T03:13:40;7.68;;;4.43;;
79562;SDS011;69026;50.980;11.314;2023-05-29T03:16:08;6.18;;;4.10;;
79562;SDS011;69026;50.980;11.314;2023-05-29T03:18:36;6.65;;;3.75;;
79562;SDS011;69026;50.980;11.314;2023-05-29T03:21:02;6.30;;;3.95;;
79562;SDS011;69026;50.980;11.314;2023-05-29T03:23:31;6.43;;;3.92;;
79562;SDS011;69026;50.980;11.314;2023-05-29T03:25:57;6.20;;;4.05;;
79562;SDS011;69026;50.980;11.314;2023-05-29T03:28:23;7.53;;;4.57;;
79562;SDS011;69026;50.980;11.314;2023-05-29T03:30:51;7.15;;;4.68;;
79562;SDS011;69026;50.980;11.314;2023-05-29T03:33:19;7.45;;;4.45;;
79562;SDS011;69026;50.980;11.314;2023-05-29T03:36:03;6.72;;;4.65;;
79562;SDS011;69026;50.980;11.314;2023-05-29T03:38:31;6.43;;;4.45;;
79562;SDS011;69026;50.980;11.314;2023-05-29T03:40:58;6.07;;;4.30;;
79562;SDS011;69026;50.980;11.314;2023-05-29T03:43:25;6.03;;;4.20;;
79562;SDS011;69026;50.980;11.314;2023-05-29T03:45:51;5.22;;;3.72;;
79562;SDS011;69026;50.980;11.314;2023-05-29T03:48:17;4.78;;;3.47;;
79562;SDS011;69026;50.980;11.314;2023-05-29T03:50:46;7.05;;;4.55;;
79562;SDS011;69026;50.980;11.314;2023-05-29T03:53:13;5.38;;;4.15;;
79562;SDS011;69026;50.980;11.314;2023-05-29T03:55:39;7.13;;;4.53;;
79562;SDS011;69026;50.980;11.314;2023-05-29T03:58:07;6.93;;;4.57;;
79562;SDS011;69026;50.980;11.314;2023-05-29T04:00:33;5.43;;;3.70;;
79562;SDS011;69026;50.980;11.314;2023-05-29T04:03:01;6.15;;;4.50;;
79562;SDS011;69026;50.980;11.314;2023-05-29T04:05:27;5.88;;;4.45;;
79562;SDS011;69026;50.980;11.314;2023-05-29T04:07:53;5.85;;;4.18;;
79562;SDS011;69026;50.980;11.314;2023-05-29T04:10:19;6.60;;;4.43;;
79562;SDS011;69026;50.980;11.314;2023-05-29T04:12:45;6.82;;;4.50;;
79562;SDS011;69026;50.980;11.314;2023-05-29T04:15:10;7.63;;;4.50;;
79562;SDS011;69026;50.980;11.314;2023-05-29T04:17:36;6.88;;;3.88;;
79562;SDS011;69026;50.980;11.314;2023-05-29T04:20:02;5.18;;;3.70;;
79562;SDS011;69026;50.980;11.314;2023-05-29T04:22:36;6.45;;;3.80;;
79562;SDS011;69026;50.980;11.314;2023-05-29T04:25:05;5.65;;;3.97;;
79562;SDS011;69026;50.980;11.314;2023-05-29T04:27:31;7.45;;;4.90;;
79562;SDS011;69026;50.980;11.314;2023-05-29T04:29:59;5.82;;;4.05;;
79562;SDS011;69026;50.980;11.314;2023-05-29T04:32:28;6.68;;;4.25;;
79562;SDS011;69026;50.980;11.314;2023-05-29T04:34:55;5.47;;;3.80;;
79562;SDS011;69026;50.980;11.314;2023-05-29T04:37:20;5.70;;;4.07;;
79562;SDS011;69026;50.980;11.314;2023-05-29T04:39:57;6.43;;;4.43;;
79562;SDS011;69026;50.980;11.314;2023-05-29T04:42:25;5.93;;;3.92;;
79562;SDS011;69026;50.980;11.314;2023-05-29T04:44:52;6.05;;;4.18;;
79562;SDS011;69026;50.980;11.314;2023-05-29T04:47:19;5.15;;;3.80;;
79562;SDS011;69026;50.980;11.314;2023-05-29T04:49:45;5.63;;;4.28;;
79562;SDS011;69026;50.980;11.314;2023-05-29T04:52:15;5.47;;;3.85;;
79562;SDS011;69026;50.980;11.314;2023-05-29T04:54:42;7.55;;;4.50;;
79562;SDS011;69026;50.980;11.314;2023-05-29T04:57:09;6.57;;;4.40;;
79562;SDS011;69026;50.980;11.314;2023-05-29T04:59:35;5.43;;;3.92;;
79562;SDS011;69026;50.980;11.314;2023-05-29T05:02:02;6.30;;;4.32;;
79562;SDS011;69026;50.980;11.314;2023-05-29T05:04:28;5.88;;;3.85;;
79562;SDS011;69026;50.980;11.314;2023-05-29T05:06:53;5.65;;;3.50;;
79562;SDS011;69026;50.980;11.314;2023-05-29T05:09:19;6.40;;;4.45;;
79562;SDS011;69026;50.980;11.314;2023-05-29T05:11:45;6.82;;;4.25;;
79562;SDS011;69026;50.980;11.314;2023-05-29T05:14:11;5.88;;;3.67;;
79562;SDS011;69026;50.980;11.314;2023-05-29T05:16:37;5.90;;;3.50;;
79562;SDS011;69026;50.980;11.314;2023-05-29T05:19:03;5.15;;;3.65;;
79562;SDS011;69026;50.980;11.314;2023-05-29T05:21:31;5.85;;;4.15;;
79562;SDS011;69026;50.980;11.314;2023-05-29T05:23:59;6.65;;;4.60;;
79562;SDS011;69026;50.980;11.314;2023-05-29T05:26:26;5.63;;;3.88;;
79562;SDS011;69026;50.980;11.314;2023-05-29T05:28:52;5.28;;;3.95;;
79562;SDS011;69026;50.980;11.314;2023-05-29T05:31:18;6.30;;;3.67;;
79562;SDS011;69026;50.980;11.314;2023-05-29T05:33:44;6.63;;;4.20;;
79562;SDS011;69026;50.980;11.314;2023-05-29T05:36:10;5.80;;;4.15;;
79562;SDS011;69026;50.980;11.314;2023-05-29T05:38:38;6.53;;;4.18;;
79562;SDS011;69026;50.980;11.314;2023-05-29T05:41:04;5.28;;;4.07;;
79562;SDS011;69026;50.980;11.314;2023-05-29T05:43:32;5.72;;;3.95;;
79562;SDS011;69026;50.980;11.314;2023-05-29T05:46:16;5.60;;;3.63;;
79562;SDS011;69026;50.980;11.314;2023-05-29T05:48:43;6.63;;;4.15;;
79562;SDS011;69026;50.980;11.314;2023-05-29T05:51:09;4.38;;;3.47;;
79562;SDS011;69026;50.980;11.314;2023-05-29T05:53:36;6.55;;;4.07;;
79562;SDS011;69026;50.980;11.314;2023-05-29T05:56:02;6.35;;;3.78;;
79562;SDS011;69026;50.980;11.314;2023-05-29T05:58:29;5.28;;;4.05;;
79562;SDS011;69026;50.980;11.314;2023-05-29T06:00:55;5.57;;;3.60;;
79562;SDS011;69026;50.980;11.314;2023-05-29T06:03:23;7.40;;;4.03;;
79562;SDS011;69026;50.980;11.314;2023-05-29T06:06:04;6.80;;;3.90;;
79562;SDS011;69026;50.980;11.314;2023-05-29T06:08:30;5.97;;;4.07;;
79562;SDS011;69026;50.980;11.314;2023-05-29T06:10:56;5.32;;;3.83;;
79562;SDS011;69026;50.980;11.314;2023-05-29T06:13:22;4.43;;;3.42;;
79562;SDS011;69026;50.980;11.314;2023-05-29T06:15:53;6.28;;;4.07;;
79562;SDS011;69026;50.980;11.314;2023-05-29T06:18:19;7.10;;;3.50;;
79562;SDS011;69026;50.980;11.314;2023-05-29T06:20:45;5.38;;;3.67;;
79562;SDS011;69026;50.980;11.314;2023-05-29T06:23:11;5.75;;;3.72;;
79562;SDS011;69026;50.980;11.314;2023-05-29T06:25:37;5.88;;;4.15;;
79562;SDS011;69026;50.980;11.314;2023-05-29T06:28:05;6.32;;;4.00;;
79562;SDS011;69026;50.980;11.314;2023-05-29T06:30:33;3.65;;;3.00;;
79562;SDS011;69026;50.980;11.314;2023-05-29T06:33:01;4.65;;;3.30;;
79562;SDS011;69026;50.980;11.314;2023-05-29T06:35:30;6.22;;;3.75;;
79562;SDS011;69026;50.980;11.314;2023-05-29T06:37:56;4.85;;;3.40;;
79562;SDS011;69026;50.980;11.314;2023-05-29T06:42:50;4.88;;;3.20;;
79562;SDS011;69026;50.980;11.314;2023-05-29T06:45:16;6.15;;;3.47;;
79562;SDS011;69026;50.980;11.314;2023-05-29T06:47:43;4.78;;;3.40;;
79562;SDS011;69026;50.980;11.314;2023-05-29T06:50:10;5.85;;;3.58;;
79562;SDS011;69026;50.980;11.314;2023-05-29T06:52:37;5.22;;;3.65;;
79562;SDS011;69026;50.980;11.314;2023-05-29T06:55:41;5.30;;;3.55;;
79562;SDS011;69026;50.980;11.314;2023-05-29T06:58:07;4.13;;;2.83;;
79562;SDS011;69026;50.980;11.314;2023-05-29T07:00:33;6.43;;;3.75;;
79562;SDS011;69026;50.980;11.314;2023-05-29T07:03:36;4.97;;;3.38;;
79562;SDS011;69026;50.980;11.314;2023-05-29T07:06:03;4.88;;;3.15;;
79562;SDS011;69026;50.980;11.314;2023-05-29T07:08:31;4.15;;;3.13;;
79562;SDS011;69026;50.980;11.314;2023-05-29T07:10:57;5.03;;;3.50;;
79562;SDS011;69026;50.980;11.314;2023-05-29T07:13:24;5.25;;;3.33;;
79562;SDS011;69026;50.980;11.314;2023-05-29T07:15:50;4.88;;;3.45;;
79562;SDS011;69026;50.980;11.314;2023-05-29T07:18:20;6.68;;;3.75;;
79562;SDS011;69026;50.980;11.314;2023-05-29T07:20:46;5.35;;;3.13;;
79562;SDS011;69026;50.980;11.314;2023-05-29T07:23:15;4.43;;;3.55;;
79562;SDS011;69026;50.980;11.314;2023-05-29T07:25:41;4.72;;;3.35;;
79562;SDS011;69026;50.980;11.314;2023-05-29T07:28:09;4.13;;;2.88;;
79562;SDS011;69026;50.980;11.314;2023-05-29T07:30:34;5.57;;;3.28;;
79562;SDS011;69026;50.980;11.314;2023-05-29T07:33:00;3.88;;;2.95;;
79562;SDS011;69026;50.980;11.314;2023-05-29T07:35:26;5.07;;;3.28;;
79562;SDS011;69026;50.980;11.314;2023-05-29T07:37:53;4.68;;;3.28;;
79562;SDS011;69026;50.980;11.314;2023-05-29T07:40:21;5.05;;;3.20;;
79562;SDS011;69026;50.980;11.314;2023-05-29T07:42:56;4.72;;;2.67;;
79562;SDS011;69026;50.980;11.314;2023-05-29T07:45:24;5.68;;;3.53;;
79562;SDS011;69026;50.980;11.314;2023-05-29T07:47:51;6.00;;;3.35;;
79562;SDS011;69026;50.980;11.314;2023-05-29T07:50:17;4.60;;;3.00;;
79562;SDS011;69026;50.980;11.314;2023-05-29T07:52:43;5.45;;;3.50;;
79562;SDS011;69026;50.980;11.314;2023-05-29T07:55:09;6.03;;;2.97;;
79562;SDS011;69026;50.980;11.314;2023-05-29T07:57:36;5.05;;;3.22;;
79562;SDS011;69026;50.980;11.314;2023-05-29T08:00:03;6.38;;;3.17;;
79562;SDS011;69026;50.980;11.314;2023-05-29T08:02:44;4.70;;;2.75;;
79562;SDS011;69026;50.980;11.314;2023-05-29T08:05:29;4.95;;;3.10;;
79562;SDS011;69026;50.980;11.314;2023-05-29T08:07:58;4.70;;;3.22;;
79562;SDS011;69026;50.980;11.314;2023-05-29T08:10:25;4.15;;;2.60;;
79562;SDS011;69026;50.980;11.314;2023-05-29T08:12:51;4.13;;;2.83;;
79562;SDS011;69026;50.980;11.314;2023-05-29T08:15:18;3.85;;;2.95;;
79562;SDS011;69026;50.980;11.314;2023-05-29T08:17:44;6.03;;;3.08;;
79562;SDS011;69026;50.980;11.314;2023-05-29T08:20:10;3.58;;;2.63;;
79562;SDS011;69026;50.980;11.314;2023-05-29T08:22:36;4.97;;;2.67;;
79562;SDS011;69026;50.980;11.314;2023-05-29T08:25:02;4.35;;;2.92;;
79562;SDS011;69026;50.980;11.314;2023-05-29T08:27:28;4.82;;;2.97;;
79562;SDS011;69026;50.980;11.314;2023-05-29T08:29:54;4.00;;;2.78;;
79562;SDS011;69026;50.980;11.314;2023-05-29T08:32:20;5.13;;;3.15;;
79562;SDS011;69026;50.980;11.314;2023-05-29T08:34:50;3.83;;;2.65;;
79562;SDS011;69026;50.980;11.314;2023-05-29T08:37:16;6.50;;;3.15;;
79562;SDS011;69026;50.980;11.314;2023-05-29T08:39:42;4.07;;;2.42;;
79562;SDS011;69026;50.980;11.314;2023-05-29T08:42:29;4.60;;;2.97;;
79562;SDS011;69026;50.980;11.314;2023-05-29T08:44:58;4.70;;;2.72;;
79562;SDS011;69026;50.980;11.314;2023-05-29T08:47:28;4.68;;;2.80;;
79562;SDS011;69026;50.980;11.314;2023-05-29T08:49:58;5.55;;;2.92;;
79562;SDS011;69026;50.980;11.314;2023-05-29T08:52:26;4.53;;;2.63;;
79562;SDS011;69026;50.980;11.314;2023-05-29T08:54:53;4.80;;;2.72;;
79562;SDS011;69026;50.980;11.314;2023-05-29T08:57:19;6.32;;;3.00;;
79562;SDS011;69026;50.980;11.314;2023-05-29T08:59:46;6.28;;;3.25;;
79562;SDS011;69026;50.980;11.314;2023-05-29T09:02:14;5.65;;;3.20;;
79562;SDS011;69026;50.980;11.314;2023-05-29T09:04:41;4.32;;;2.28;;
79562;SDS011;69026;50.980;11.314;2023-05-29T09:07:11;4.80;;;2.95;;
79562;SDS011;69026;50.980;11.314;2023-05-29T09:09:38;4.72;;;3.17;;
79562;SDS011;69026;50.980;11.314;2023-05-29T09:12:04;6.45;;;2.53;;
79562;SDS011;69026;50.980;11.314;2023-05-29T09:17:03;5.55;;;2.50;;
79562;SDS011;69026;50.980;11.314;2023-05-29T09:19:31;6.40;;;2.53;;
79562;SDS011;69026;50.980;11.314;2023-05-29T09:22:07;4.22;;;2.42;;
79562;SDS011;69026;50.980;11.314;2023-05-29T09:24:35;4.38;;;2.60;;
79562;SDS011;69026;50.980;11.314;2023-05-29T09:27:02;5.35;;;2.60;;
79562;SDS011;69026;50.980;11.314;2023-05-29T09:29:37;4.57;;;2.63;;
79562;SDS011;69026;50.980;11.314;2023-05-29T09:32:08;5.68;;;2.72;;
79562;SDS011;69026;50.980;11.314;2023-05-29T09:34:38;5.05;;;2.67;;
79562;SDS011;69026;50.980;11.314;2023-05-29T09:37:05;3.53;;;2.20;;
79562;SDS011;69026;50.980;11.314;2023-05-29T09:42:08;3.80;;;2.33;;
79562;SDS011;69026;50.980;11.314;2023-05-29T09:44:35;5.40;;;2.58;;
79562;SDS011;69026;50.980;11.314;2023-05-29T09:47:01;3.95;;;2.53;;
79562;SDS011;69026;50.980;11.314;2023-05-29T09:49:26;3.97;;;2.35;;
79562;SDS011;69026;50.980;11.314;2023-05-29T09:51:53;3.85;;;2.65;;
79562;SDS011;69026;50.980;11.314;2023-05-29T09:54:20;6.72;;;2.53;;
79562;SDS011;69026;50.980;11.314;2023-05-29T09:56:46;5.28;;;2.63;;
79562;SDS011;69026;50.980;11.314;2023-05-29T09:59:16;6.80;;;3.00;;
79562;SDS011;69026;50.980;11.314;2023-05-29T10:01:43;4.70;;;2.28;;
79562;SDS011;69026;50.980;11.314;2023-05-29T10:04:10;4.95;;;2.40;;
79562;SDS011;69026;50.980;11.314;2023-05-29T10:06:37;4.78;;;2.42;;
79562;SDS011;69026;50.980;11.314;2023-05-29T10:09:08;4.38;;;2.45;;
79562;SDS011;69026;50.980;11.314;2023-05-29T10:11:37;8.50;;;2.83;;
79562;SDS011;69026;50.980;11.314;2023-05-29T10:14:03;7.78;;;2.95;;
79562;SDS011;69026;50.980;11.314;2023-05-29T10:16:31;4.97;;;2.75;;
79562;SDS011;69026;50.980;11.314;2023-05-29T10:19:01;4.78;;;2.55;;
79562;SDS011;69026;50.980;11.314;2023-05-29T10:21:33;5.07;;;2.80;;
79562;SDS011;69026;50.980;11.314;2023-05-29T10:24:02;4.57;;;2.63;;
79562;SDS011;69026;50.980;11.314;2023-05-29T10:26:36;5.95;;;2.65;;
79562;SDS011;69026;50.980;11.314;2023-05-29T10:36:49;7.15;;;2.80;;
79562;SDS011;69026;50.980;11.314;2023-05-29T10:39:25;5.22;;;2.83;;
79562;SDS011;69026;50.980;11.314;2023-05-29T10:41:51;5.60;;;3.47;;
79562;SDS011;69026;50.980;11.314;2023-05-29T10:49:24;5.35;;;3.10;;
79562;SDS011;69026;50.980;11.314;2023-05-29T10:51:50;4.30;;;2.50;;
79562;SDS011;69026;50.980;11.314;2023-05-29T10:54:16;4.55;;;2.70;;
79562;SDS011;69026;50.980;11.314;2023-05-29T10:56:56;5.75;;;2.35;;
79562;SDS011;69026;50.980;11.314;2023-05-29T10:59:24;4.90;;;2.63;;
79562;SDS011;69026;50.980;11.314;2023-05-29T11:01:53;4.53;;;2.53;;
79562;SDS011;69026;50.980;11.314;2023-05-29T11:06:48;6.20;;;2.50;;
79562;SDS011;69026;50.980;11.314;2023-05-29T11:09:36;9.38;;;3.20;;
79562;SDS011;69026;50.980;11.314;2023-05-29T11:15:05;4.72;;;2.15;;
79562;SDS011;69026;50.980;11.314;2023-05-29T11:20:09;4.97;;;2.38;;
79562;SDS011;69026;50.980;11.314;2023-05-29T11:25:14;5.15;;;2.63;;
79562;SDS011;69026;50.980;11.314;2023-05-29T11:27:41;4.88;;;2.63;;
